aviador You're here:

SCCI Decoded Metar

PUNTA ARENAS in CHILE
Report Time2017-08-22 10:00:00
UTC Time2017-08-22 11:03:55
Flight Rules vfr VFR
Wind300° at 20 kt
W.Decomp.*RWY 30: 19.5 kt HW 4.5 kt LCW
RWY 25: 16.0 kt HW 12.0 kt RCW
RWY 01: 2.4 kt HW 19.9 kt LCW
W.Rank300° ranks 7
Current wind is above 300° avg. (12.8)
Visibility9999 m
Phenomena:N/A
Clouds:Few 038 Hf
Scattered 150 Hf
Expected CloudBase > 1,600 ft AGL from Temp-Dew spread
CeilingNone
Temp06°C (ISA -9)
Dew Point02°C (76% RH)
AAT-2.9°C
QNH0950 hPa
Density Alt1,358 ft
Elevation121 ft
Report Wrong Elevation
Raw Report
METAR SCCI 221000Z 30020KT 9999 FEW038 SCT150 06/02 Q0950 NOSIG=

Extra information for SCCI:More info

Metar Taf Metar & Taf Last 4 Metars F.Rules Stats Wind Profile Meteogram Temp Stats Airport Information Weather charts Add Link Nearby VenuesMetar ALERT Operation Metar Decoded Social comments